Time;durP1;ratioP1;P1;durP2;ratioP2;P2;SDS_P1;SDS_P2;PMS_P1;PMS_P2;Temp;Humidity;BMP_temperature;BMP_pressure;BME280_temperature;BME280_humidity;BME280_pressure;Samples;Min_cycle;Max_cycle;Signal;HPM_P1;HPM_P2
2022/03/30 05:05:40;;;;;;;20.10;13.50;;;;;;;;;;5128753;27;20538;-77
2022/03/30 05:08:08;;;;;;;20.67;12.87;;;;;;;;;;5108886;28;20203;-77
2022/03/30 05:10:35;;;;;;;22.43;13.17;;;;;;;;;;5108694;28;20192;-77
2022/03/30 05:13:04;;;;;;;19.67;14.13;;;;;;;;;;5107824;28;20277;-77
2022/03/30 05:15:31;;;;;;;20.83;13.53;;;;;;;;;;5108215;28;20223;-77
2022/03/30 05:17:59;;;;;;;19.40;13.93;;;;;;;;;;5108509;28;20210;-76
2022/03/30 05:20:27;;;;;;;24.20;14.97;;;;;;;;;;5108018;28;20203;-77
2022/03/30 05:22:55;;;;;;;24.10;14.60;;;;;;;;;;5108142;28;20191;-77
2022/03/30 05:25:25;;;;;;;25.07;14.77;;;;;;;;;;5105516;28;20222;-78
2022/03/30 05:27:52;;;;;;;19.20;14.10;;;;;;;;;;5112336;28;20308;-81
2022/03/30 05:30:20;;;;;;;24.13;15.30;;;;;;;;;;5108107;28;20199;-75
2022/03/30 05:32:48;;;;;;;22.50;15.13;;;;;;;;;;5103986;28;20645;-75
2022/03/30 05:35:15;;;;;;;24.70;16.80;;;;;;;;;;5108175;28;20247;-75
2022/03/30 05:37:46;;;;;;;25.17;16.60;;;;;;;;;;5107965;28;20288;-75
2022/03/30 05:40:16;;;;;;;27.67;17.90;;;;;;;;;;5107630;28;20245;-76
2022/03/30 05:42:44;;;;;;;25.23;16.50;;;;;;;;;;5106255;28;20225;-75
2022/03/30 05:45:11;;;;;;;28.87;17.50;;;;;;;;;;5107260;28;20314;-75
2022/03/30 05:47:38;;;;;;;27.23;17.93;;;;;;;;;;5106332;28;20243;-75
2022/03/30 05:50:07;;;;;;;30.47;19.33;;;;;;;;;;5107898;28;20199;-74
2022/03/30 05:52:34;;;;;;;29.10;21.40;;;;;;;;;;5107647;28;20214;-75
2022/03/30 05:55:02;;;;;;;29.97;20.83;;;;;;;;;;5108188;28;20238;-75
2022/03/30 05:57:30;;;;;;;33.80;21.70;;;;;;;;;;5108431;28;20321;-74
2022/03/30 05:59:58;;;;;;;27.60;20.57;;;;;;;;;;5108070;28;20229;-74
2022/03/30 06:02:26;;;;;;;30.43;23.33;;;;;;;;;;5106191;28;20217;-74
2022/03/30 06:04:53;;;;;;;37.60;23.60;;;;;;;;;;5105307;28;20203;-79
2022/03/30 06:07:21;;;;;;;38.43;25.17;;;;;;;;;;5107217;28;20279;-75
2022/03/30 06:09:48;;;;;;;42.40;25.50;;;;;;;;;;5107755;28;20199;-75
2022/03/30 06:12:16;;;;;;;35.53;24.37;;;;;;;;;;5106572;28;20248;-75
2022/03/30 06:14:45;;;;;;;37.77;26.10;;;;;;;;;;5107661;28;20215;-75
2022/03/30 06:17:13;;;;;;;38.53;26.07;;;;;;;;;;5093694;28;20269;-75
2022/03/30 06:19:41;;;;;;;42.10;28.23;;;;;;;;;;5093335;28;20245;-76
2022/03/30 06:22:09;;;;;;;37.23;27.67;;;;;;;;;;5092536;28;20207;-74
2022/03/30 06:24:37;;;;;;;38.60;27.27;;;;;;;;;;5093296;28;20197;-74
2022/03/30 06:27:05;;;;;;;38.80;27.60;;;;;;;;;;5092505;28;20292;-74
2022/03/30 06:29:33;;;;;;;38.07;27.70;;;;;;;;;;5093281;28;20192;-74
2022/03/30 06:32:02;;;;;;;44.83;28.87;;;;;;;;;;5093575;28;20212;-74
2022/03/30 06:34:29;;;;;;;42.70;28.73;;;;;;;;;;5092678;28;20357;-79
2022/03/30 06:36:56;;;;;;;43.83;29.63;;;;;;;;;;5095883;28;20269;-75
2022/03/30 06:39:24;;;;;;;41.37;28.63;;;;;;;;;;5091500;28;20287;-75
2022/03/30 06:41:52;;;;;;;43.50;29.07;;;;;;;;;;5093406;28;20724;-74
2022/03/30 06:44:19;;;;;;;41.40;30.00;;;;;;;;;;5094129;28;20226;-75
2022/03/30 06:46:46;;;;;;;46.33;30.50;;;;;;;;;;5105470;22;20227;-78
2022/03/30 06:49:15;;;;;;;41.37;29.20;;;;;;;;;;5089851;28;20208;-79
2022/03/30 06:51:42;;;;;;;38.73;27.70;;;;;;;;;;5116402;28;20188;-80
2022/03/30 06:54:10;;;;;;;41.60;29.10;;;;;;;;;;5099971;28;20224;-79
2022/03/30 06:56:37;;;;;;;39.17;27.90;;;;;;;;;;5095310;28;20228;-81
2022/03/30 06:59:04;;;;;;;40.40;31.47;;;;;;;;;;5096116;28;20253;-79
2022/03/30 07:01:32;;;;;;;36.10;25.97;;;;;;;;;;5095513;28;20226;-79
2022/03/30 07:03:59;;;;;;;34.57;25.40;;;;;;;;;;5097565;28;20211;-80
2022/03/30 07:06:27;;;;;;;32.80;23.10;;;;;;;;;;5097745;28;20234;-79
2022/03/30 07:11:40;;;;;;;31.37;23.27;;;;;;;;;;5099049;28;20240;-79
2022/03/30 07:14:08;;;;;;;27.17;20.47;;;;;;;;;;5104839;28;20291;-80
2022/03/30 07:16:35;;;;;;;26.40;20.47;;;;;;;;;;5104250;28;20357;-80
2022/03/30 07:19:02;;;;;;;27.10;22.03;;;;;;;;;;5104921;28;20204;-79
2022/03/30 07:21:31;;;;;;;32.90;25.90;;;;;;;;;;5102253;28;20196;-79
2022/03/30 07:23:58;;;;;;;28.43;23.10;;;;;;;;;;5106579;28;20235;-79
2022/03/30 07:26:26;;;;;;;28.60;21.60;;;;;;;;;;5105995;28;20223;-80
2022/03/30 07:28:53;;;;;;;30.00;20.43;;;;;;;;;;5104851;28;20238;-80
2022/03/30 07:31:21;;;;;;;26.77;19.20;;;;;;;;;;5105781;28;20208;-80
2022/03/30 07:33:48;;;;;;;24.70;20.20;;;;;;;;;;5102624;28;20263;-80
2022/03/30 07:36:16;;;;;;;26.17;18.80;;;;;;;;;;5098112;28;20245;-79
2022/03/30 07:38:45;;;;;;;29.40;19.80;;;;;;;;;;5103844;28;20207;-80
2022/03/30 07:50:23;;;;;;;26.97;19.13;;;;;;;;;;5101605;28;20230;-79
2022/03/30 07:52:50;;;;;;;24.83;19.57;;;;;;;;;;5103864;28;20263;-81
2022/03/30 07:55:19;;;;;;;26.03;20.10;;;;;;;;;;5100126;28;20216;-82
2022/03/30 07:57:46;;;;;;;23.20;18.67;;;;;;;;;;5096536;28;20254;-80
2022/03/30 08:00:16;;;;;;;25.40;18.13;;;;;;;;;;5095348;28;20204;-80
2022/03/30 08:02:44;;;;;;;28.27;20.07;;;;;;;;;;5094194;28;20235;-80
2022/03/30 08:11:20;;;;;;;26.03;19.77;;;;;;;;;;5088772;28;20189;-80
2022/03/30 08:13:47;;;;;;;24.90;20.83;;;;;;;;;;5096723;28;20242;-80
2022/03/30 08:16:14;;;;;;;23.60;19.93;;;;;;;;;;5093779;28;20216;-80
2022/03/30 08:18:42;;;;;;;25.00;19.37;;;;;;;;;;5095742;28;20200;-80
2022/03/30 08:23:54;;;;;;;25.37;20.03;;;;;;;;;;5098501;28;20249;-80
2022/03/30 08:26:23;;;;;;;22.00;18.83;;;;;;;;;;5091586;28;20269;-80
2022/03/30 08:28:50;;;;;;;25.07;18.40;;;;;;;;;;5094388;28;20208;-79
2022/03/30 08:31:18;;;;;;;24.77;19.20;;;;;;;;;;5094462;28;20207;-79
2022/03/30 08:33:45;;;;;;;25.07;17.77;;;;;;;;;;5092033;28;20336;-80
2022/03/30 08:36:12;;;;;;;23.13;17.57;;;;;;;;;;5092960;28;20252;-80
2022/03/30 08:38:42;;;;;;;21.37;16.70;;;;;;;;;;5091508;28;20295;-80
2022/03/30 08:41:10;;;;;;;24.83;16.87;;;;;;;;;;5086566;28;20234;-79
2022/03/30 08:43:41;;;;;;;19.27;15.83;;;;;;;;;;5092507;28;20226;-79
2022/03/30 08:46:09;;;;;;;21.30;15.43;;;;;;;;;;5094068;28;20290;-80
2022/03/30 08:48:36;;;;;;;21.33;16.27;;;;;;;;;;5094217;28;20253;-79
2022/03/30 08:51:04;;;;;;;24.10;16.57;;;;;;;;;;5094541;28;20274;-81
2022/03/30 09:05:24;;;;;;;15.93;12.33;;;;;;;;;;5771266;22;20220;-80
2022/03/30 09:07:54;;;;;;;22.57;14.37;;;;;;;;;;5075442;28;20216;-81
2022/03/30 09:10:22;;;;;;;21.60;14.30;;;;;;;;;;5073744;28;20217;-80
2022/03/30 09:12:51;;;;;;;15.83;11.03;;;;;;;;;;5076781;28;20239;-80
2022/03/30 09:15:19;;;;;;;18.77;10.80;;;;;;;;;;5073322;28;20224;-80
2022/03/30 09:17:47;;;;;;;19.57;11.30;;;;;;;;;;5068108;28;20262;-87
2022/03/30 09:20:16;;;;;;;17.10;10.43;;;;;;;;;;5096518;22;20221;-78
2022/03/30 09:22:46;;;;;;;18.97;11.97;;;;;;;;;;5059857;28;20223;-79
2022/03/30 09:25:13;;;;;;;15.93;10.50;;;;;;;;;;5053447;28;20200;-74
2022/03/30 09:27:42;;;;;;;22.37;12.03;;;;;;;;;;5049482;28;20201;-74
2022/03/30 09:30:10;;;;;;;14.63;10.90;;;;;;;;;;5051670;28;20221;-77
2022/03/30 09:32:38;;;;;;;18.43;11.67;;;;;;;;;;5053597;28;20213;-78
2022/03/30 09:35:06;;;;;;;15.30;10.60;;;;;;;;;;5050799;28;20221;-75
2022/03/30 09:37:34;;;;;;;17.63;11.30;;;;;;;;;;5052285;28;20212;-76
2022/03/30 09:40:10;;;;;;;19.40;12.10;;;;;;;;;;5053112;28;20217;-75
2022/03/30 09:42:38;;;;;;;17.80;10.83;;;;;;;;;;5050026;28;20209;-78
2022/03/30 09:45:06;;;;;;;15.10;10.57;;;;;;;;;;5050434;28;20202;-74
2022/03/30 09:47:38;;;;;;;16.23;10.50;;;;;;;;;;5061797;28;20200;-75
2022/03/30 09:50:08;;;;;;;15.87;10.80;;;;;;;;;;5047499;28;20223;-78
2022/03/30 09:52:35;;;;;;;15.03;10.53;;;;;;;;;;5051641;28;20212;-75
2022/03/30 09:55:05;;;;;;;19.77;11.77;;;;;;;;;;5054037;28;20408;-75
2022/03/30 09:57:39;;;;;;;12.70;10.17;;;;;;;;;;5053733;28;20236;-75
2022/03/30 10:00:08;;;;;;;14.20;10.57;;;;;;;;;;5052814;28;20312;-80
2022/03/30 10:02:36;;;;;;;16.60;11.33;;;;;;;;;;5053820;28;20332;-75
2022/03/30 10:05:07;;;;;;;16.97;10.37;;;;;;;;;;5053404;28;20207;-75
2022/03/30 10:07:34;;;;;;;12.60;10.23;;;;;;;;;;5053546;28;20263;-76
2022/03/30 10:10:01;;;;;;;16.70;10.60;;;;;;;;;;5050774;28;20213;-75
2022/03/30 10:12:30;;;;;;;15.37;10.20;;;;;;;;;;5048670;28;20194;-75
2022/03/30 10:14:58;;;;;;;16.27;10.80;;;;;;;;;;5052656;28;20205;-75
2022/03/30 10:17:26;;;;;;;15.03;10.13;;;;;;;;;;5053514;28;20197;-75
2022/03/30 10:19:57;;;;;;;12.63;9.77;;;;;;;;;;5050180;28;20257;-75
2022/03/30 10:22:39;;;;;;;13.10;9.70;;;;;;;;;;5053890;28;20204;-75
2022/03/30 10:25:10;;;;;;;11.83;8.77;;;;;;;;;;5048307;28;20282;-76
2022/03/30 10:27:45;;;;;;;17.07;10.00;;;;;;;;;;5044671;28;20292;-75
2022/03/30 10:30:12;;;;;;;19.80;11.70;;;;;;;;;;5053854;28;20223;-76
2022/03/30 10:32:40;;;;;;;18.03;9.83;;;;;;;;;;5053003;28;20255;-76
2022/03/30 10:35:16;;;;;;;13.83;9.20;;;;;;;;;;5054045;28;20208;-78
2022/03/30 10:37:44;;;;;;;14.90;9.93;;;;;;;;;;5052734;28;20217;-78
2022/03/30 10:40:19;;;;;;;17.17;8.30;;;;;;;;;;5053818;28;20224;-78
2022/03/30 10:43:04;;;;;;;17.13;9.57;;;;;;;;;;5055031;28;20232;-80
2022/03/30 10:45:33;;;;;;;14.77;9.17;;;;;;;;;;5047356;28;20198;-79
2022/03/30 10:48:08;;;;;;;13.83;8.17;;;;;;;;;;5051094;28;20198;-79
2022/03/30 10:50:35;;;;;;;14.47;8.00;;;;;;;;;;5049401;28;20236;-79
2022/03/30 10:53:03;;;;;;;12.63;9.13;;;;;;;;;;5053122;28;20206;-79
2022/03/30 10:55:31;;;;;;;16.33;9.13;;;;;;;;;;5055526;28;20264;-80
2022/03/30 10:58:01;;;;;;;16.43;9.17;;;;;;;;;;5053418;28;20198;-79
2022/03/30 11:00:31;;;;;;;15.80;9.27;;;;;;;;;;5049575;28;20248;-79
2022/03/30 11:03:11;;;;;;;11.67;8.87;;;;;;;;;;5048328;28;20215;-82
2022/03/30 11:05:39;;;;;;;14.17;8.73;;;;;;;;;;5051600;28;20590;-82
2022/03/30 11:08:07;;;;;;;12.63;8.73;;;;;;;;;;5054125;28;20240;-82
2022/03/30 11:10:48;;;;;;;12.63;8.93;;;;;;;;;;5046305;28;20229;-80
2022/03/30 11:13:24;;;;;;;16.60;9.77;;;;;;;;;;5054149;28;20201;-81
2022/03/30 11:16:12;;;;;;;17.13;9.40;;;;;;;;;;5054711;28;20213;-80
2022/03/30 11:18:56;;;;;;;17.63;9.37;;;;;;;;;;5058241;28;20201;-83
2022/03/30 11:21:23;;;;;;;13.10;9.30;;;;;;;;;;5057499;28;20233;-85
2022/03/30 11:24:11;;;;;;;12.50;8.67;;;;;;;;;;5060235;28;20212;-79
2022/03/30 11:27:02;;;;;;;13.83;9.17;;;;;;;;;;5057177;28;20213;-82
2022/03/30 11:29:49;;;;;;;14.27;9.23;;;;;;;;;;5053412;28;20222;-82
2022/03/30 11:32:43;;;;;;;13.87;9.43;;;;;;;;;;5054356;28;20221;-80
2022/03/30 11:35:13;;;;;;;13.07;8.60;;;;;;;;;;5021322;28;20212;-79
2022/03/30 11:37:41;;;;;;;13.80;9.17;;;;;;;;;;5061853;28;20257;-80
2022/03/30 11:40:10;;;;;;;16.13;9.83;;;;;;;;;;5060720;28;20241;-80
2022/03/30 11:42:38;;;;;;;12.57;9.17;;;;;;;;;;5060777;28;20258;-78
2022/03/30 11:45:15;;;;;;;12.60;9.03;;;;;;;;;;5052595;28;20303;-78
2022/03/30 11:47:46;;;;;;;10.97;9.30;;;;;;;;;;5051448;28;20314;-78
2022/03/30 11:50:15;;;;;;;11.60;9.60;;;;;;;;;;5048679;28;20220;-78
2022/03/30 11:52:44;;;;;;;15.90;11.07;;;;;;;;;;5054583;28;20201;-78
2022/03/30 11:55:12;;;;;;;19.37;13.63;;;;;;;;;;5053397;28;20296;-78
2022/03/30 11:57:40;;;;;;;13.97;10.63;;;;;;;;;;5054936;28;20265;-80
2022/03/30 12:00:09;;;;;;;17.87;10.73;;;;;;;;;;5053929;28;20223;-78
2022/03/30 12:02:37;;;;;;;12.87;10.33;;;;;;;;;;5053897;28;20293;-78
2022/03/30 12:05:05;;;;;;;14.30;10.00;;;;;;;;;;5052437;28;20205;-78
2022/03/30 12:07:36;;;;;;;14.90;10.63;;;;;;;;;;5053701;28;20274;-78
2022/03/30 12:10:05;;;;;;;16.67;11.87;;;;;;;;;;5053800;28;20245;-78
2022/03/30 12:12:37;;;;;;;20.00;12.20;;;;;;;;;;5054700;28;20209;-79
2022/03/30 12:15:06;;;;;;;15.07;12.73;;;;;;;;;;5052591;28;20208;-79
2022/03/30 12:17:34;;;;;;;9.40;8.50;;;;;;;;;;5051510;28;20271;-83
2022/03/30 12:20:02;;;;;;;7.93;7.07;;;;;;;;;;5077039;28;20239;-81
2022/03/30 12:22:30;;;;;;;8.03;7.33;;;;;;;;;;5064329;28;20215;-80
2022/03/30 12:24:59;;;;;;;9.40;8.60;;;;;;;;;;5058670;28;20205;-79
2022/03/30 12:27:27;;;;;;;9.90;9.07;;;;;;;;;;5055312;28;20204;-79
2022/03/30 12:29:58;;;;;;;10.47;9.57;;;;;;;;;;5056060;28;20316;-79
2022/03/30 12:32:37;;;;;;;10.27;9.27;;;;;;;;;;5055520;28;20237;-80
2022/03/30 12:35:18;;;;;;;10.93;9.93;;;;;;;;;;5050193;28;20287;-80
2022/03/30 12:37:46;;;;;;;9.23;8.47;;;;;;;;;;5054759;28;20274;-79
2022/03/30 12:40:18;;;;;;;10.00;9.10;;;;;;;;;;5055015;28;20228;-80
2022/03/30 12:43:03;;;;;;;10.43;9.30;;;;;;;;;;5058808;28;20259;-83
2022/03/30 12:45:31;;;;;;;10.40;9.50;;;;;;;;;;5056320;28;20197;-77
2022/03/30 12:47:59;;;;;;;10.97;9.97;;;;;;;;;;5051166;28;20267;-77
2022/03/30 12:50:32;;;;;;;11.60;10.40;;;;;;;;;;5051503;28;20217;-77
2022/03/30 12:53:04;;;;;;;12.60;11.47;;;;;;;;;;5051322;28;20251;-77
2022/03/30 12:55:35;;;;;;;12.93;11.67;;;;;;;;;;5046456;28;20201;-77
2022/03/30 12:58:05;;;;;;;12.83;11.53;;;;;;;;;;5051178;28;20251;-78
2022/03/30 13:00:36;;;;;;;14.00;12.53;;;;;;;;;;5051650;28;20235;-77
2022/03/30 13:03:05;;;;;;;12.80;11.60;;;;;;;;;;5051348;28;20227;-77
2022/03/30 13:05:36;;;;;;;12.90;11.70;;;;;;;;;;5051265;28;20227;-77
2022/03/30 13:08:10;;;;;;;13.37;12.07;;;;;;;;;;5050004;28;20212;-76
2022/03/30 13:10:52;;;;;;;12.83;11.63;;;;;;;;;;5050804;28;20311;-77
2022/03/30 13:13:20;;;;;;;11.80;10.73;;;;;;;;;;5050149;28;20309;-77
2022/03/30 13:15:47;;;;;;;12.27;11.17;;;;;;;;;;5055087;28;20205;-77
2022/03/30 13:18:19;;;;;;;11.67;10.67;;;;;;;;;;5051886;28;20209;-77
2022/03/30 13:21:01;;;;;;;12.80;11.37;;;;;;;;;;5051495;28;20319;-77
2022/03/30 13:23:36;;;;;;;12.57;11.40;;;;;;;;;;5047938;28;20229;-77
2022/03/30 13:26:05;;;;;;;12.27;11.13;;;;;;;;;;5049066;28;20208;-77
2022/03/30 13:28:37;;;;;;;12.43;11.23;;;;;;;;;;5057332;28;20218;-79
2022/03/30 13:31:05;;;;;;;13.33;12.00;;;;;;;;;;5055077;28;20249;-84
2022/03/30 13:33:32;;;;;;;12.90;11.70;;;;;;;;;;5057320;28;20200;-77
